sensor_id;sensor_type;location;lat;lon;timestamp;pressure;altitude;pressure_sealevel;temperature;humidity
2339;BME280;1180;51.438;6.978;2023-06-22T00:00:51;100522.38;;;24.63;63.15
2339;BME280;1180;51.438;6.978;2023-06-22T00:03:18;100521.47;;;24.32;63.88
2339;BME280;1180;51.438;6.978;2023-06-22T00:05:45;100525.19;;;24.15;65.54
2339;BME280;1180;51.438;6.978;2023-06-22T00:08:12;100534.31;;;24.27;64.87
2339;BME280;1180;51.438;6.978;2023-06-22T00:10:38;100530.41;;;24.46;64.60
2339;BME280;1180;51.438;6.978;2023-06-22T00:13:06;100524.97;;;24.48;64.46
2339;BME280;1180;51.438;6.978;2023-06-22T00:15:32;100523.31;;;24.47;64.72
2339;BME280;1180;51.438;6.978;2023-06-22T00:17:58;100522.28;;;24.56;64.71
2339;BME280;1180;51.438;6.978;2023-06-22T00:20:25;100525.19;;;24.61;64.56
2339;BME280;1180;51.438;6.978;2023-06-22T00:22:56;100527.66;;;24.40;65.17
2339;BME280;1180;51.438;6.978;2023-06-22T00:25:23;100526.47;;;24.65;64.35
2339;BME280;1180;51.438;6.978;2023-06-22T00:27:50;100526.25;;;24.75;64.31
2339;BME280;1180;51.438;6.978;2023-06-22T00:30:16;100522.03;;;24.66;64.61
2339;BME280;1180;51.438;6.978;2023-06-22T00:32:44;100526.72;;;24.94;64.30
2339;BME280;1180;51.438;6.978;2023-06-22T00:35:11;100520.59;;;25.02;63.92
2339;BME280;1180;51.438;6.978;2023-06-22T00:37:38;100521.06;;;25.20;63.15
2339;BME280;1180;51.438;6.978;2023-06-22T00:40:08;100525.56;;;25.27;63.12
2339;BME280;1180;51.438;6.978;2023-06-22T00:42:37;100528.28;;;25.03;63.89
2339;BME280;1180;51.438;6.978;2023-06-22T00:45:06;100513.34;;;25.19;63.67
2339;BME280;1180;51.438;6.978;2023-06-22T00:47:34;100513.41;;;24.80;64.75
2339;BME280;1180;51.438;6.978;2023-06-22T00:50:00;100519.22;;;24.91;64.44
2339;BME280;1180;51.438;6.978;2023-06-22T00:52:27;100514.50;;;24.63;65.70
2339;BME280;1180;51.438;6.978;2023-06-22T00:54:56;100510.34;;;24.30;67.30
2339;BME280;1180;51.438;6.978;2023-06-22T00:57:24;100509.06;;;24.26;67.88
2339;BME280;1180;51.438;6.978;2023-06-22T00:59:53;100505.91;;;24.31;67.52
2339;BME280;1180;51.438;6.978;2023-06-22T01:05:41;100514.56;;;24.78;66.40
2339;BME280;1180;51.438;6.978;2023-06-22T01:10:57;100507.19;;;24.97;65.54
2339;BME280;1180;51.438;6.978;2023-06-22T01:16:24;100503.72;;;24.81;66.37
2339;BME280;1180;51.438;6.978;2023-06-22T01:18:54;100499.56;;;24.87;66.27
2339;BME280;1180;51.438;6.978;2023-06-22T01:21:23;100503.56;;;24.98;66.24
2339;BME280;1180;51.438;6.978;2023-06-22T01:26:45;100492.59;;;24.94;66.32
2339;BME280;1180;51.438;6.978;2023-06-22T01:29:13;100493.28;;;24.73;67.11
2339;BME280;1180;51.438;6.978;2023-06-22T01:31:41;100493.94;;;24.90;66.66
2339;BME280;1180;51.438;6.978;2023-06-22T01:34:08;100501.31;;;24.94;66.53
2339;BME280;1180;51.438;6.978;2023-06-22T01:36:35;100491.78;;;24.93;66.34
2339;BME280;1180;51.438;6.978;2023-06-22T01:39:02;100479.94;;;24.98;66.59
2339;BME280;1180;51.438;6.978;2023-06-22T01:41:34;100485.00;;;24.99;66.13
2339;BME280;1180;51.438;6.978;2023-06-22T01:44:01;100480.09;;;24.96;66.65
2339;BME280;1180;51.438;6.978;2023-06-22T01:46:29;100478.19;;;24.90;66.89
2339;BME280;1180;51.438;6.978;2023-06-22T01:48:55;100484.34;;;24.82;67.44
2339;BME280;1180;51.438;6.978;2023-06-22T01:51:21;100488.16;;;24.94;67.33
2339;BME280;1180;51.438;6.978;2023-06-22T01:53:46;100490.16;;;24.92;67.74
2339;BME280;1180;51.438;6.978;2023-06-22T01:56:13;100477.78;;;24.86;68.01
2339;BME280;1180;51.438;6.978;2023-06-22T01:58:48;100479.69;;;24.69;68.55
2339;BME280;1180;51.438;6.978;2023-06-22T02:01:22;100482.31;;;24.69;69.47
2339;BME280;1180;51.438;6.978;2023-06-22T02:04:02;100486.53;;;24.78;69.05
2339;BME280;1180;51.438;6.978;2023-06-22T02:06:42;100482.66;;;24.66;69.65
2339;BME280;1180;51.438;6.978;2023-06-22T02:09:12;100489.47;;;24.60;70.36
2339;BME280;1180;51.438;6.978;2023-06-22T02:11:41;100488.94;;;24.42;70.65
2339;BME280;1180;51.438;6.978;2023-06-22T02:14:08;100483.81;;;24.48;70.85
2339;BME280;1180;51.438;6.978;2023-06-22T02:16:35;100480.66;;;24.53;71.00
2339;BME280;1180;51.438;6.978;2023-06-22T02:19:02;100484.06;;;24.38;71.28
2339;BME280;1180;51.438;6.978;2023-06-22T02:21:31;100472.81;;;24.30;71.78
2339;BME280;1180;51.438;6.978;2023-06-22T02:23:58;100478.53;;;24.33;71.75
2339;BME280;1180;51.438;6.978;2023-06-22T02:26:25;100477.75;;;24.48;71.00
2339;BME280;1180;51.438;6.978;2023-06-22T02:28:52;100470.41;;;24.43;71.11
2339;BME280;1180;51.438;6.978;2023-06-22T02:31:18;100475.13;;;24.48;70.59
2339;BME280;1180;51.438;6.978;2023-06-22T02:33:44;100473.06;;;24.20;71.60
2339;BME280;1180;51.438;6.978;2023-06-22T02:36:10;100471.53;;;24.26;71.93
2339;BME280;1180;51.438;6.978;2023-06-22T02:38:38;100473.28;;;24.33;71.75
2339;BME280;1180;51.438;6.978;2023-06-22T02:41:04;100470.81;;;24.32;71.55
2339;BME280;1180;51.438;6.978;2023-06-22T02:43:29;100465.66;;;24.23;72.06
2339;BME280;1180;51.438;6.978;2023-06-22T02:45:55;100462.16;;;24.31;72.13
2339;BME280;1180;51.438;6.978;2023-06-22T02:48:20;100462.06;;;24.40;71.26
2339;BME280;1180;51.438;6.978;2023-06-22T02:50:46;100461.44;;;24.37;71.19
2339;BME280;1180;51.438;6.978;2023-06-22T02:53:11;100461.31;;;24.54;70.55
2339;BME280;1180;51.438;6.978;2023-06-22T02:55:36;100456.41;;;24.51;70.29
2339;BME280;1180;51.438;6.978;2023-06-22T02:58:02;100453.25;;;24.56;70.71
2339;BME280;1180;51.438;6.978;2023-06-22T03:00:30;100448.88;;;24.48;70.47
2339;BME280;1180;51.438;6.978;2023-06-22T03:02:56;100447.50;;;24.22;71.39
2339;BME280;1180;51.438;6.978;2023-06-22T03:05:23;100446.09;;;24.11;72.00
2339;BME280;1180;51.438;6.978;2023-06-22T03:07:48;100448.00;;;24.17;72.33
2339;BME280;1180;51.438;6.978;2023-06-22T03:10:14;100445.53;;;24.16;72.63
2339;BME280;1180;51.438;6.978;2023-06-22T03:12:41;100442.09;;;23.92;73.44
2339;BME280;1180;51.438;6.978;2023-06-22T03:15:11;100439.09;;;24.03;73.31
2339;BME280;1180;51.438;6.978;2023-06-22T03:17:38;100444.75;;;23.84;73.96
2339;BME280;1180;51.438;6.978;2023-06-22T03:20:05;100439.00;;;23.65;74.74
2339;BME280;1180;51.438;6.978;2023-06-22T03:22:36;100439.84;;;23.57;75.55
2339;BME280;1180;51.438;6.978;2023-06-22T03:25:03;100439.72;;;23.50;76.57
2339;BME280;1180;51.438;6.978;2023-06-22T03:27:28;100430.06;;;23.51;76.42
2339;BME280;1180;51.438;6.978;2023-06-22T03:29:53;100432.25;;;23.39;77.00
2339;BME280;1180;51.438;6.978;2023-06-22T03:32:19;100426.72;;;23.34;77.31
2339;BME280;1180;51.438;6.978;2023-06-22T03:34:45;100434.16;;;23.54;76.66
2339;BME280;1180;51.438;6.978;2023-06-22T03:37:14;100434.16;;;23.54;76.12
2339;BME280;1180;51.438;6.978;2023-06-22T03:39:40;100431.31;;;23.32;77.04
2339;BME280;1180;51.438;6.978;2023-06-22T03:42:06;100439.06;;;23.08;78.66
2339;BME280;1180;51.438;6.978;2023-06-22T03:44:32;100439.16;;;23.23;78.35
2339;BME280;1180;51.438;6.978;2023-06-22T03:46:57;100421.28;;;23.35;77.42
2339;BME280;1180;51.438;6.978;2023-06-22T03:49:22;100420.34;;;23.28;77.98
2339;BME280;1180;51.438;6.978;2023-06-22T03:51:48;100415.72;;;23.39;78.03
2339;BME280;1180;51.438;6.978;2023-06-22T03:54:13;100413.75;;;23.41;77.23
2339;BME280;1180;51.438;6.978;2023-06-22T03:56:39;100411.63;;;23.36;77.86
2339;BME280;1180;51.438;6.978;2023-06-22T03:59:04;100413.63;;;23.34;78.51
2339;BME280;1180;51.438;6.978;2023-06-22T04:01:30;100402.94;;;23.35;78.69
2339;BME280;1180;51.438;6.978;2023-06-22T04:03:55;100404.34;;;23.55;77.35
2339;BME280;1180;51.438;6.978;2023-06-22T04:06:21;100414.47;;;23.58;77.74
2339;BME280;1180;51.438;6.978;2023-06-22T04:08:47;100401.03;;;23.84;76.74
2339;BME280;1180;51.438;6.978;2023-06-22T04:11:17;100411.81;;;23.89;75.73
2339;BME280;1180;51.438;6.978;2023-06-22T04:13:43;100413.38;;;23.99;75.73
2339;BME280;1180;51.438;6.978;2023-06-22T04:16:09;100412.50;;;23.60;76.90
2339;BME280;1180;51.438;6.978;2023-06-22T04:18:34;100412.44;;;23.36;77.99
2339;BME280;1180;51.438;6.978;2023-06-22T04:21:00;100407.19;;;23.36;78.31
2339;BME280;1180;51.438;6.978;2023-06-22T04:23:25;100415.22;;;23.66;77.87
2339;BME280;1180;51.438;6.978;2023-06-22T04:25:51;100419.31;;;23.92;76.22
2339;BME280;1180;51.438;6.978;2023-06-22T04:28:17;100422.66;;;24.09;75.04
2339;BME280;1180;51.438;6.978;2023-06-22T04:34:05;100405.06;;;24.18;73.69
2339;BME280;1180;51.438;6.978;2023-06-22T04:36:35;100414.03;;;24.24;73.84
2339;BME280;1180;51.438;6.978;2023-06-22T04:39:04;100423.38;;;24.42;73.45
2339;BME280;1180;51.438;6.978;2023-06-22T04:41:29;100422.13;;;24.52;72.97
2339;BME280;1180;51.438;6.978;2023-06-22T04:43:55;100429.47;;;24.57;72.86
2339;BME280;1180;51.438;6.978;2023-06-22T04:46:25;100427.00;;;24.56;73.26
2339;BME280;1180;51.438;6.978;2023-06-22T04:48:50;100423.28;;;24.50;73.07
2339;BME280;1180;51.438;6.978;2023-06-22T04:51:15;100424.81;;;24.29;73.40
2339;BME280;1180;51.438;6.978;2023-06-22T04:53:41;100415.94;;;24.30;73.37
2339;BME280;1180;51.438;6.978;2023-06-22T04:56:06;100411.59;;;24.37;73.20
2339;BME280;1180;51.438;6.978;2023-06-22T04:58:31;100410.44;;;24.40;73.54
2339;BME280;1180;51.438;6.978;2023-06-22T05:00:57;100411.59;;;24.37;73.42
2339;BME280;1180;51.438;6.978;2023-06-22T05:03:25;100413.94;;;24.32;73.63
2339;BME280;1180;51.438;6.978;2023-06-22T05:05:52;100408.06;;;24.30;73.73
2339;BME280;1180;51.438;6.978;2023-06-22T05:08:17;100402.00;;;24.30;74.00
2339;BME280;1180;51.438;6.978;2023-06-22T05:10:43;100411.69;;;24.29;74.30
2339;BME280;1180;51.438;6.978;2023-06-22T05:13:08;100407.91;;;24.08;74.83
2339;BME280;1180;51.438;6.978;2023-06-22T05:15:33;100410.94;;;23.97;75.38
2339;BME280;1180;51.438;6.978;2023-06-22T05:18:05;100406.13;;;24.09;75.54
2339;BME280;1180;51.438;6.978;2023-06-22T05:20:30;100407.63;;;24.03;75.50
2339;BME280;1180;51.438;6.978;2023-06-22T05:22:55;100410.75;;;23.99;76.30
2339;BME280;1180;51.438;6.978;2023-06-22T05:25:21;100412.94;;;24.18;76.36
2339;BME280;1180;51.438;6.978;2023-06-22T05:27:46;100409.16;;;24.21;76.92
2339;BME280;1180;51.438;6.978;2023-06-22T05:30:12;100412.06;;;24.26;77.54
2339;BME280;1180;51.438;6.978;2023-06-22T05:32:37;100424.59;;;24.31;78.88
2339;BME280;1180;51.438;6.978;2023-06-22T05:35:03;100418.53;;;24.15;79.27
2339;BME280;1180;51.438;6.978;2023-06-22T05:37:29;100415.00;;;24.08;80.22
2339;BME280;1180;51.438;6.978;2023-06-22T05:39:55;100415.00;;;24.08;80.70
2339;BME280;1180;51.438;6.978;2023-06-22T05:42:21;100419.91;;;24.03;80.26
2339;BME280;1180;51.438;6.978;2023-06-22T05:44:46;100419.03;;;23.87;80.10
2339;BME280;1180;51.438;6.978;2023-06-22T05:47:12;100423.06;;;23.98;81.04
2339;BME280;1180;51.438;6.978;2023-06-22T05:49:38;100430.38;;;24.11;80.37
2339;BME280;1180;51.438;6.978;2023-06-22T05:52:03;100428.47;;;23.97;80.25
2339;BME280;1180;51.438;6.978;2023-06-22T05:54:29;100432.06;;;23.95;80.19
2339;BME280;1180;51.438;6.978;2023-06-22T05:56:55;100437.09;;;24.05;81.01
2339;BME280;1180;51.438;6.978;2023-06-22T05:59:20;100443.53;;;23.94;81.81
2339;BME280;1180;51.438;6.978;2023-06-22T06:01:46;100449.41;;;24.05;81.57
2339;BME280;1180;51.438;6.978;2023-06-22T06:04:15;100455.31;;;23.99;80.13
2339;BME280;1180;51.438;6.978;2023-06-22T06:06:40;100454.91;;;23.87;79.67
2339;BME280;1180;51.438;6.978;2023-06-22T06:09:06;100455.16;;;23.69;80.46
2339;BME280;1180;51.438;6.978;2023-06-22T06:11:32;100451.78;;;23.60;82.16
2339;BME280;1180;51.438;6.978;2023-06-22T06:13:58;100450.28;;;23.34;84.35
2339;BME280;1180;51.438;6.978;2023-06-22T06:16:23;100444.34;;;23.40;85.61
2339;BME280;1180;51.438;6.978;2023-06-22T06:18:48;100436.59;;;23.07;86.16
2339;BME280;1180;51.438;6.978;2023-06-22T06:21:15;100434.34;;;22.96;88.97
2339;BME280;1180;51.438;6.978;2023-06-22T06:23:41;100433.41;;;22.88;88.69
2339;BME280;1180;51.438;6.978;2023-06-22T06:26:07;100426.47;;;23.04;88.75
2339;BME280;1180;51.438;6.978;2023-06-22T06:28:33;100424.56;;;23.38;88.40
2339;BME280;1180;51.438;6.978;2023-06-22T06:30:59;100427.16;;;22.98;88.16
2339;BME280;1180;51.438;6.978;2023-06-22T06:33:24;100422.31;;;22.36;93.05
2339;BME280;1180;51.438;6.978;2023-06-22T06:35:50;100428.88;;;22.24;94.49
2339;BME280;1180;51.438;6.978;2023-06-22T06:38:16;100427.53;;;22.20;95.26
2339;BME280;1180;51.438;6.978;2023-06-22T06:40:42;100427.88;;;22.17;95.67
2339;BME280;1180;51.438;6.978;2023-06-22T06:43:08;100426.88;;;22.43;95.56
2339;BME280;1180;51.438;6.978;2023-06-22T06:45:34;100428.03;;;22.57;94.69
2339;BME280;1180;51.438;6.978;2023-06-22T06:48:00;100433.75;;;22.52;93.62
2339;BME280;1180;51.438;6.978;2023-06-22T06:50:27;100436.00;;;22.80;92.50
2339;BME280;1180;51.438;6.978;2023-06-22T06:52:54;100432.13;;;22.68;93.71
2339;BME280;1180;51.438;6.978;2023-06-22T06:55:20;100430.47;;;22.42;93.29
2339;BME280;1180;51.438;6.978;2023-06-22T06:57:45;100426.41;;;22.14;94.21
2339;BME280;1180;51.438;6.978;2023-06-22T07:00:14;100432.44;;;22.31;94.90
2339;BME280;1180;51.438;6.978;2023-06-22T07:02:44;100426.25;;;22.49;94.19
2339;BME280;1180;51.438;6.978;2023-06-22T07:05:11;100416.44;;;22.43;95.09
2339;BME280;1180;51.438;6.978;2023-06-22T07:07:38;100420.22;;;22.48;93.75
2339;BME280;1180;51.438;6.978;2023-06-22T07:10:05;100410.06;;;22.20;95.79
2339;BME280;1180;51.438;6.978;2023-06-22T07:12:31;100413.16;;;22.07;96.89
2339;BME280;1180;51.438;6.978;2023-06-22T07:15:08;100407.28;;;22.14;96.82
2339;BME280;1180;51.438;6.978;2023-06-22T07:17:36;100412.50;;;22.14;97.42
2339;BME280;1180;51.438;6.978;2023-06-22T07:20:05;100417.44;;;22.58;94.11
2339;BME280;1180;51.438;6.978;2023-06-22T07:22:37;100409.38;;;22.68;93.66
2339;BME280;1180;51.438;6.978;2023-06-22T07:25:05;100405.56;;;22.96;91.33
2339;BME280;1180;51.438;6.978;2023-06-22T07:28:06;100416.56;;;23.31;91.57
2339;BME280;1180;51.438;6.978;2023-06-22T07:30:32;100423.91;;;23.67;92.03
2339;BME280;1180;51.438;6.978;2023-06-22T07:32:58;100418.53;;;23.92;89.53
2339;BME280;1180;51.438;6.978;2023-06-22T07:35:29;100404.31;;;24.09;88.82
2339;BME280;1180;51.438;6.978;2023-06-22T07:37:54;100404.50;;;24.08;89.19
2339;BME280;1180;51.438;6.978;2023-06-22T07:40:19;100398.81;;;24.19;88.58
2339;BME280;1180;51.438;6.978;2023-06-22T07:42:45;100404.97;;;24.27;89.10
2339;BME280;1180;51.438;6.978;2023-06-22T07:45:13;100396.75;;;24.30;89.94
2339;BME280;1180;51.438;6.978;2023-06-22T07:47:38;100389.72;;;24.30;90.21
2339;BME280;1180;51.438;6.978;2023-06-22T07:50:04;100384.91;;;24.34;88.90
2339;BME280;1180;51.438;6.978;2023-06-22T07:52:31;100389.63;;;24.38;88.89
2339;BME280;1180;51.438;6.978;2023-06-22T07:54:56;100389.53;;;24.47;89.15
2339;BME280;1180;51.438;6.978;2023-06-22T07:57:22;100393.44;;;24.51;89.86
2339;BME280;1180;51.438;6.978;2023-06-22T07:59:47;100384.13;;;24.48;90.75
2339;BME280;1180;51.438;6.978;2023-06-22T08:02:12;100376.25;;;24.48;90.12
2339;BME280;1180;51.438;6.978;2023-06-22T08:04:38;100368.28;;;24.42;91.64
2339;BME280;1180;51.438;6.978;2023-06-22T08:07:04;100360.47;;;24.18;89.87
2339;BME280;1180;51.438;6.978;2023-06-22T08:09:31;100354.59;;;24.16;92.18
2339;BME280;1180;51.438;6.978;2023-06-22T08:11:57;100343.56;;;24.06;90.67
2339;BME280;1180;51.438;6.978;2023-06-22T08:14:26;100338.78;;;24.09;91.43
2339;BME280;1180;51.438;6.978;2023-06-22T08:16:52;100327.16;;;23.42;92.79
2339;BME280;1180;51.438;6.978;2023-06-22T08:19:17;100327.09;;;23.50;94.54
2339;BME280;1180;51.438;6.978;2023-06-22T08:21:43;100323.44;;;23.60;95.26
2339;BME280;1180;51.438;6.978;2023-06-22T08:24:08;100317.41;;;23.74;95.09
2339;BME280;1180;51.438;6.978;2023-06-22T08:26:34;100305.19;;;23.90;95.59
2339;BME280;1180;51.438;6.978;2023-06-22T08:29:04;100298.91;;;24.14;95.26
2339;BME280;1180;51.438;6.978;2023-06-22T08:31:31;100307.22;;;24.33;92.03
2339;BME280;1180;51.438;6.978;2023-06-22T08:33:59;100291.34;;;24.34;92.04
2339;BME280;1180;51.438;6.978;2023-06-22T08:36:25;100299.09;;;24.13;92.10
2339;BME280;1180;51.438;6.978;2023-06-22T08:38:51;100293.94;;;24.19;91.25
2339;BME280;1180;51.438;6.978;2023-06-22T08:41:17;100296.22;;;24.37;90.54
2339;BME280;1180;51.438;6.978;2023-06-22T08:43:43;100300.00;;;24.35;88.99
2339;BME280;1180;51.438;6.978;2023-06-22T08:46:09;100304.53;;;24.26;90.37
2339;BME280;1180;51.438;6.978;2023-06-22T08:48:35;100307.78;;;24.43;89.82
2339;BME280;1180;51.438;6.978;2023-06-22T08:51:01;100308.16;;;24.40;89.50
2339;BME280;1180;51.438;6.978;2023-06-22T08:53:26;100304.19;;;24.44;89.85
2339;BME280;1180;51.438;6.978;2023-06-22T08:55:51;100302.63;;;24.50;90.10
2339;BME280;1180;51.438;6.978;2023-06-22T08:58:16;100305.19;;;24.43;89.49
2339;BME280;1180;51.438;6.978;2023-06-22T09:00:43;100306.34;;;24.56;90.32
2339;BME280;1180;51.438;6.978;2023-06-22T09:03:08;100297.00;;;24.68;89.88
2339;BME280;1180;51.438;6.978;2023-06-22T09:05:34;100292.22;;;24.57;87.77
2339;BME280;1180;51.438;6.978;2023-06-22T09:07:59;100283.25;;;24.36;89.19
2339;BME280;1180;51.438;6.978;2023-06-22T09:10:25;100299.91;;;24.58;90.36
2339;BME280;1180;51.438;6.978;2023-06-22T09:12:50;100287.06;;;24.48;88.61
2339;BME280;1180;51.438;6.978;2023-06-22T09:15:16;100293.69;;;24.59;89.82
2339;BME280;1180;51.438;6.978;2023-06-22T09:17:41;100286.78;;;24.73;89.64
2339;BME280;1180;51.438;6.978;2023-06-22T09:20:07;100290.84;;;24.91;88.46
2339;BME280;1180;51.438;6.978;2023-06-22T09:22:35;100286.03;;;24.94;88.27
2339;BME280;1180;51.438;6.978;2023-06-22T09:25:01;100284.53;;;25.07;88.05
2339;BME280;1180;51.438;6.978;2023-06-22T09:27:28;100282.56;;;25.31;89.42
2339;BME280;1180;51.438;6.978;2023-06-22T09:29:53;100284.38;;;25.08;89.16
2339;BME280;1180;51.438;6.978;2023-06-22T09:32:18;100283.91;;;25.05;88.11
2339;BME280;1180;51.438;6.978;2023-06-22T09:34:44;100282.28;;;25.04;88.64
2339;BME280;1180;51.438;6.978;2023-06-22T09:37:09;100261.78;;;25.14;88.07
2339;BME280;1180;51.438;6.978;2023-06-22T09:39:35;100263.63;;;25.14;88.64
2339;BME280;1180;51.438;6.978;2023-06-22T09:42:01;100276.56;;;25.59;88.27
2339;BME280;1180;51.438;6.978;2023-06-22T09:44:26;100270.94;;;25.90;87.20
2339;BME280;1180;51.438;6.978;2023-06-22T09:46:52;100273.66;;;25.75;85.88
2339;BME280;1180;51.438;6.978;2023-06-22T09:49:18;100273.63;;;25.97;82.85
2339;BME280;1180;51.438;6.978;2023-06-22T09:51:43;100269.22;;;26.04;84.38
2339;BME280;1180;51.438;6.978;2023-06-22T09:54:09;100274.19;;;26.21;82.87
2339;BME280;1180;51.438;6.978;2023-06-22T09:56:34;100263.44;;;26.16;82.99
2339;BME280;1180;51.438;6.978;2023-06-22T09:58:59;100260.97;;;26.14;82.77
2339;BME280;1180;51.438;6.978;2023-06-22T10:01:24;100252.34;;;25.92;81.41
2339;BME280;1180;51.438;6.978;2023-06-22T10:03:52;100244.53;;;26.05;82.08
2339;BME280;1180;51.438;6.978;2023-06-22T10:06:21;100239.66;;;26.02;79.63
2339;BME280;1180;51.438;6.978;2023-06-22T10:08:46;100235.84;;;26.05;82.03
2339;BME280;1180;51.438;6.978;2023-06-22T10:11:13;100243.88;;;26.25;79.78
2339;BME280;1180;51.438;6.978;2023-06-22T10:13:38;100234.59;;;26.01;80.57
2339;BME280;1180;51.438;6.978;2023-06-22T10:16:04;100236.69;;;26.12;80.29
2339;BME280;1180;51.438;6.978;2023-06-22T10:18:29;100239.75;;;26.16;79.65
2339;BME280;1180;51.438;6.978;2023-06-22T10:20:56;100234.78;;;25.99;78.43
2339;BME280;1180;51.438;6.978;2023-06-22T10:23:22;100234.34;;;26.24;79.52
2339;BME280;1180;51.438;6.978;2023-06-22T10:25:47;100225.19;;;26.68;78.70
2339;BME280;1180;51.438;6.978;2023-06-22T10:28:13;100227.47;;;26.30;78.03
2339;BME280;1180;51.438;6.978;2023-06-22T10:30:42;100219.75;;;26.21;79.08
2339;BME280;1180;51.438;6.978;2023-06-22T10:33:11;100225.72;;;26.37;77.42
2339;BME280;1180;51.438;6.978;2023-06-22T10:35:37;100224.56;;;26.53;77.95
2339;BME280;1180;51.438;6.978;2023-06-22T10:38:03;100223.50;;;26.47;77.87
2339;BME280;1180;51.438;6.978;2023-06-22T10:40:29;100225.38;;;26.60;78.29
2339;BME280;1180;51.438;6.978;2023-06-22T10:42:54;100218.44;;;26.46;77.02
2339;BME280;1180;51.438;6.978;2023-06-22T10:45:19;100227.09;;;26.33;78.23
2339;BME280;1180;51.438;6.978;2023-06-22T10:47:45;100225.06;;;26.35;78.16
2339;BME280;1180;51.438;6.978;2023-06-22T10:50:11;100226.13;;;26.41;78.24
2339;BME280;1180;51.438;6.978;2023-06-22T10:52:36;100222.84;;;26.32;77.62
2339;BME280;1180;51.438;6.978;2023-06-22T10:55:02;100232.81;;;26.43;78.64
2339;BME280;1180;51.438;6.978;2023-06-22T10:57:27;100242.59;;;26.63;78.34
2339;BME280;1180;51.438;6.978;2023-06-22T10:59:53;100257.69;;;26.96;77.19
2339;BME280;1180;51.438;6.978;2023-06-22T11:02:18;100266.81;;;27.00;76.41
2339;BME280;1180;51.438;6.978;2023-06-22T11:04:43;100256.72;;;27.10;76.24
2339;BME280;1180;51.438;6.978;2023-06-22T11:07:09;100270.06;;;27.09;75.24
2339;BME280;1180;51.438;6.978;2023-06-22T11:09:34;100264.41;;;27.19;76.23
2339;BME280;1180;51.438;6.978;2023-06-22T11:12:00;100264.84;;;27.22;78.42
2339;BME280;1180;51.438;6.978;2023-06-22T11:14:25;100263.78;;;27.10;78.93
2339;BME280;1180;51.438;6.978;2023-06-22T11:16:51;100261.75;;;26.99;80.05
2339;BME280;1180;51.438;6.978;2023-06-22T11:19:16;100262.88;;;26.76;81.28
2339;BME280;1180;51.438;6.978;2023-06-22T11:21:42;100254.84;;;26.91;82.63
2339;BME280;1180;51.438;6.978;2023-06-22T11:24:08;100258.69;;;26.88;82.77
2339;BME280;1180;51.438;6.978;2023-06-22T11:26:33;100255.69;;;27.05;84.41
2339;BME280;1180;51.438;6.978;2023-06-22T11:28:59;100261.97;;;27.04;83.81
2339;BME280;1180;51.438;6.978;2023-06-22T11:31:25;100268.22;;;26.96;84.78
2339;BME280;1180;51.438;6.978;2023-06-22T11:33:51;100263.56;;;26.91;86.56
2339;BME280;1180;51.438;6.978;2023-06-22T11:36:16;100270.16;;;26.74;86.90
2339;BME280;1180;51.438;6.978;2023-06-22T11:38:43;100274.22;;;26.76;89.53
2339;BME280;1180;51.438;6.978;2023-06-22T11:41:09;100276.22;;;26.67;91.85
2339;BME280;1180;51.438;6.978;2023-06-22T11:43:35;100284.25;;;26.52;93.63
2339;BME280;1180;51.438;6.978;2023-06-22T11:46:02;100282.81;;;26.43;95.35
2339;BME280;1180;51.438;6.978;2023-06-22T11:48:28;100275.44;;;26.32;96.83
2339;BME280;1180;51.438;6.978;2023-06-22T11:50:54;100274.81;;;26.23;96.38
2339;BME280;1180;51.438;6.978;2023-06-22T11:53:24;100261.41;;;26.18;98.39
2339;BME280;1180;51.438;6.978;2023-06-22T11:55:50;100240.94;;;26.13;100.00
2339;BME280;1180;51.438;6.978;2023-06-22T11:58:16;100225.69;;;26.02;100.00
2339;BME280;1180;51.438;6.978;2023-06-22T12:00:41;100212.97;;;25.70;100.00
2339;BME280;1180;51.438;6.978;2023-06-22T12:03:07;100197.78;;;24.93;100.00
2339;BME280;1180;51.438;6.978;2023-06-22T12:05:33;100192.97;;;24.75;100.00
2339;BME280;1180;51.438;6.978;2023-06-22T12:07:58;100182.34;;;24.84;100.00
2339;BME280;1180;51.438;6.978;2023-06-22T12:10:25;100165.78;;;24.83;100.00
2339;BME280;1180;51.438;6.978;2023-06-22T12:12:51;100151.34;;;24.72;100.00
2339;BME280;1180;51.438;6.978;2023-06-22T12:15:17;100148.97;;;24.77;100.00
2339;BME280;1180;51.438;6.978;2023-06-22T12:17:42;100140.91;;;25.01;100.00
2339;BME280;1180;51.438;6.978;2023-06-22T12:20:08;100127.25;;;25.12;100.00
2339;BME280;1180;51.438;6.978;2023-06-22T12:22:34;100115.88;;;25.27;100.00
2339;BME280;1180;51.438;6.978;2023-06-22T12:25:01;100111.03;;;25.30;100.00
2339;BME280;1180;51.438;6.978;2023-06-22T12:27:26;100094.88;;;25.05;100.00
2339;BME280;1180;51.438;6.978;2023-06-22T12:29:52;100098.16;;;24.85;100.00
2339;BME280;1180;51.438;6.978;2023-06-22T12:32:17;100090.94;;;24.87;100.00
2339;BME280;1180;51.438;6.978;2023-06-22T12:34:43;100079.72;;;24.57;100.00
2339;BME280;1180;51.438;6.978;2023-06-22T12:37:09;100084.47;;;24.68;100.00
2339;BME280;1180;51.438;6.978;2023-06-22T12:39:34;100098.56;;;25.11;100.00
2339;BME280;1180;51.438;6.978;2023-06-22T12:42:00;100096.75;;;24.83;100.00
2339;BME280;1180;51.438;6.978;2023-06-22T12:44:26;100092.25;;;24.76;100.00
2339;BME280;1180;51.438;6.978;2023-06-22T12:46:52;100097.13;;;24.79;100.00
2339;BME280;1180;51.438;6.978;2023-06-22T12:49:18;100092.28;;;24.83;100.00
2339;BME280;1180;51.438;6.978;2023-06-22T12:51:44;100104.22;;;25.07;100.00
2339;BME280;1180;51.438;6.978;2023-06-22T12:54:10;100090.41;;;24.99;100.00
2339;BME280;1180;51.438;6.978;2023-06-22T12:56:37;100078.53;;;24.81;100.00
2339;BME280;1180;51.438;6.978;2023-06-22T12:59:04;100072.13;;;24.84;100.00
2339;BME280;1180;51.438;6.978;2023-06-22T13:01:31;100065.75;;;24.49;100.00
2339;BME280;1180;51.438;6.978;2023-06-22T13:03:58;100073.47;;;24.36;100.00
2339;BME280;1180;51.438;6.978;2023-06-22T13:06:25;100079.22;;;24.68;100.00
2339;BME280;1180;51.438;6.978;2023-06-22T13:08:51;100063.75;;;24.51;100.00
2339;BME280;1180;51.438;6.978;2023-06-22T13:11:17;100067.06;;;24.60;100.00
2339;BME280;1180;51.438;6.978;2023-06-22T13:13:44;100062.13;;;24.50;100.00
2339;BME280;1180;51.438;6.978;2023-06-22T13:16:10;100065.44;;;24.59;100.00
2339;BME280;1180;51.438;6.978;2023-06-22T13:18:36;100072.41;;;24.30;100.00
2339;BME280;1180;51.438;6.978;2023-06-22T13:21:03;100060.69;;;24.26;100.00